createdAt,value
2022-12-05T00:00:35.385Z,97909.13
2022-12-05T00:02:38.471Z,97910.78
2022-12-05T00:04:44.157Z,97913.47
2022-12-05T00:06:47.180Z,97916.28
2022-12-05T00:08:50.487Z,97917.28
2022-12-05T00:10:53.484Z,97918.25
2022-12-05T00:12:56.529Z,97931.63
2022-12-05T00:14:59.580Z,97926.69
2022-12-05T00:17:02.730Z,97931.44
2022-12-05T00:19:07.002Z,97934.97
2022-12-05T00:21:16.337Z,97928.28
2022-12-05T00:23:19.246Z,97928.28
2022-12-05T00:25:22.250Z,97932.69
2022-12-05T00:27:25.198Z,97939.84
2022-12-05T00:29:28.169Z,97938.34
2022-12-05T00:31:31.261Z,97941.75
2022-12-05T00:33:34.397Z,97938.50
2022-12-05T00:35:37.389Z,97924.63
2022-12-05T00:37:41.714Z,97928.75
2022-12-05T00:39:44.857Z,97926.91
2022-12-05T00:41:47.805Z,97930.03
2022-12-05T00:43:51.330Z,97935.13
2022-12-05T00:45:54.381Z,97923.94
2022-12-05T00:47:57.376Z,97925.69
2022-12-05T00:50:00.550Z,97934.66
2022-12-05T00:52:03.597Z,97928.06
2022-12-05T00:54:10.740Z,97928.97
2022-12-05T00:56:16.759Z,97926.63
2022-12-05T00:58:19.764Z,97926.56
2022-12-05T01:00:22.754Z,97926.63
2022-12-05T01:02:25.795Z,97927.88
2022-12-05T01:04:28.863Z,97928.78
2022-12-05T01:06:32.885Z,97931.44
2022-12-05T01:08:36.721Z,97936.09
2022-12-05T01:10:41.006Z,97926.66
2022-12-05T01:12:44.162Z,97934.31
2022-12-05T01:14:47.198Z,97945.63
2022-12-05T01:16:51.759Z,97951.66
2022-12-05T01:18:55.232Z,97951.81
2022-12-05T01:20:58.466Z,97953.69
2022-12-05T01:23:01.564Z,97954.63
2022-12-05T01:25:05.186Z,97959.72
2022-12-05T01:27:09.594Z,97964.03
2022-12-05T01:29:15.087Z,97973.03
2022-12-05T01:31:20.270Z,97989.72
2022-12-05T01:33:23.206Z,97986.59
2022-12-05T01:35:26.162Z,97990.31
2022-12-05T01:37:29.145Z,97996.41
2022-12-05T01:39:32.097Z,97991.31
2022-12-05T01:41:38.236Z,97995.41
2022-12-05T01:44:02.826Z,97990.22
2022-12-05T01:46:07.157Z,97992.75
2022-12-05T01:48:13.741Z,97998.91
2022-12-05T01:50:16.653Z,98008.59
2022-12-05T01:52:22.855Z,98012.13
2022-12-05T01:54:25.971Z,98002.47
2022-12-05T01:56:29.005Z,98009.53
2022-12-05T01:58:37.324Z,97996.47
2022-12-05T02:00:41.759Z,97996.41
2022-12-05T02:02:47.912Z,97996.25
2022-12-05T02:04:56.116Z,97990.78
2022-12-05T02:06:59.151Z,97990.50
2022-12-05T02:09:02.419Z,97996.28
2022-12-05T02:11:07.894Z,98005.38
2022-12-05T02:13:26.686Z,98004.34
2022-12-05T02:15:38.049Z,98010.09
2022-12-05T02:17:50.395Z,98009.00
2022-12-05T02:20:04.522Z,98004.50
2022-12-05T02:22:39.227Z,97997.38
2022-12-05T02:25:10.405Z,98004.03
2022-12-05T02:27:33.259Z,98009.88
2022-12-05T02:30:11.807Z,98001.97
2022-12-05T02:32:19.410Z,98014.84
2022-12-05T02:34:27.915Z,98019.94
2022-12-05T02:36:36.424Z,98017.34
2022-12-05T02:38:43.133Z,98008.59
2022-12-05T02:40:53.022Z,98005.13
2022-12-05T02:43:00.996Z,98020.47
2022-12-05T02:45:09.815Z,98018.78
2022-12-05T02:47:16.411Z,98020.63
2022-12-05T02:49:22.773Z,98031.88
2022-12-05T02:51:29.252Z,98039.78
2022-12-05T02:53:32.689Z,98039.13
2022-12-05T02:55:36.683Z,98050.44
2022-12-05T02:57:39.994Z,98048.81
2022-12-05T02:59:43.018Z,98053.16
2022-12-05T03:01:47.603Z,98049.81
2022-12-05T03:03:52.430Z,98051.66
2022-12-05T03:06:01.206Z,98052.56
2022-12-05T03:08:05.925Z,98063.81
2022-12-05T03:10:09.541Z,98061.22
2022-12-05T03:12:17.150Z,98057.13
2022-12-05T03:14:22.883Z,98067.47
2022-12-05T03:16:30.401Z,98057.81
2022-12-05T03:18:36.613Z,98059.50
2022-12-05T03:20:45.577Z,98056.84
2022-12-05T03:22:51.150Z,98052.34
2022-12-05T03:24:54.756Z,98055.59
2022-12-05T03:27:03.264Z,98047.69
2022-12-05T03:29:18.962Z,98049.22
2022-12-05T03:31:34.515Z,98049.09
2022-12-05T03:33:42.793Z,98046.34
2022-12-05T03:35:50.789Z,98041.91
2022-12-05T03:37:58.336Z,98035.06
2022-12-05T03:40:07.460Z,98031.72
2022-12-05T03:42:14.010Z,98035.13
2022-12-05T03:44:20.328Z,98036.00
2022-12-05T03:46:26.033Z,98029.91
2022-12-05T03:48:31.742Z,98052.13
2022-12-05T03:50:36.375Z,98055.44
2022-12-05T03:53:17.519Z,98045.03
2022-12-05T03:55:10.085Z,98058.81
2022-12-05T03:57:16.473Z,98058.75
2022-12-05T03:59:22.652Z,98054.41
2022-12-05T04:01:28.469Z,98058.75
2022-12-05T04:03:39.692Z,98062.16
2022-12-05T04:05:46.129Z,98063.06
2022-12-05T04:07:53.959Z,98066.59
2022-12-05T04:10:00.413Z,98067.25
2022-12-05T04:12:06.026Z,98069.72
2022-12-05T04:14:11.894Z,98052.44
2022-12-05T04:16:36.006Z,98056.78
2022-12-05T04:18:43.253Z,98045.75
2022-12-05T04:21:03.898Z,98040.56
2022-12-05T04:23:08.969Z,98052.03
2022-12-05T04:25:31.445Z,98066.72
2022-12-05T04:27:40.215Z,98055.38
2022-12-05T04:29:47.651Z,98061.34
2022-12-05T04:31:54.472Z,98064.75
2022-12-05T04:34:01.335Z,98067.22
2022-12-05T04:36:09.091Z,98067.13
2022-12-05T04:38:16.495Z,98067.06
2022-12-05T04:40:21.463Z,98067.00
2022-12-05T04:42:27.555Z,98063.50
2022-12-05T04:44:32.988Z,98075.41
2022-12-05T04:46:36.914Z,98078.00
2022-12-05T04:48:41.089Z,98070.16
2022-12-05T04:50:46.226Z,98076.09
2022-12-05T04:52:51.867Z,98082.22
2022-12-05T04:54:59.003Z,98085.47
2022-12-05T04:57:06.307Z,98090.56
2022-12-05T04:59:09.276Z,98080.28
2022-12-05T05:01:15.775Z,98070.84
2022-12-05T05:03:23.076Z,98075.94
2022-12-05T05:05:26.603Z,98085.38
2022-12-05T05:07:30.041Z,98078.44
2022-12-05T05:09:33.112Z,98072.38
2022-12-05T05:11:37.707Z,98081.81
2022-12-05T05:13:40.685Z,98074.06
2022-12-05T05:15:43.722Z,98073.13
2022-12-05T05:17:46.664Z,98078.31
2022-12-05T05:19:49.737Z,98083.47
2022-12-05T05:21:53.249Z,98087.91
2022-12-05T05:23:56.672Z,98086.06
2022-12-05T05:25:59.781Z,98083.41
2022-12-05T05:28:04.289Z,98091.09
2022-12-05T05:30:08.634Z,98094.47
2022-12-05T05:32:11.956Z,98108.16
2022-12-05T05:34:16.923Z,98115.91
2022-12-05T05:36:20.574Z,98123.59
2022-12-05T05:38:23.640Z,98115.09
2022-12-05T05:40:26.723Z,98123.69
2022-12-05T05:42:29.712Z,98120.34
2022-12-05T05:44:34.180Z,98118.66
2022-12-05T05:46:37.421Z,98107.78
2022-12-05T05:48:40.816Z,98102.91
2022-12-05T05:50:43.798Z,98108.16
2022-12-05T05:52:47.429Z,98105.50
2022-12-05T05:54:50.365Z,98108.00
2022-12-05T05:56:53.391Z,98118.44
2022-12-05T05:58:58.332Z,98114.16
2022-12-05T06:01:05.466Z,98119.25
2022-12-05T06:03:09.508Z,98132.03
2022-12-05T06:05:12.571Z,98129.31
2022-12-05T06:07:15.624Z,98128.41
2022-12-05T06:09:18.558Z,98133.50
2022-12-05T06:11:26.181Z,98137.66
2022-12-05T06:13:29.638Z,98135.00
2022-12-05T06:15:32.561Z,98148.81
2022-12-05T06:17:37.071Z,98137.50
2022-12-05T06:19:40.095Z,98153.91
2022-12-05T06:21:43.115Z,98149.47
2022-12-05T06:23:46.323Z,98144.31
2022-12-05T06:25:49.968Z,98137.38
2022-12-05T06:27:52.951Z,98127.09
2022-12-05T06:29:56.119Z,98124.13
2022-12-05T06:31:59.465Z,98132.94
2022-12-05T06:34:05.407Z,98126.41
2022-12-05T06:36:10.654Z,98136.69
2022-12-05T06:38:13.637Z,98140.72
2022-12-05T06:40:16.720Z,98144.09
2022-12-05T06:42:22.208Z,98141.34
2022-12-05T06:44:26.941Z,98145.50
2022-12-05T06:46:30.040Z,98144.59
2022-12-05T06:48:33.087Z,98142.78
2022-12-05T06:50:37.457Z,98144.47
2022-12-05T06:52:40.430Z,98152.16
2022-12-05T06:54:43.404Z,98149.41
2022-12-05T06:56:46.389Z,98155.34
2022-12-05T06:58:52.433Z,98158.84
2022-12-05T07:01:13.601Z,98155.34
2022-12-05T07:03:16.621Z,98162.19
2022-12-05T07:05:19.802Z,98166.47
2022-12-05T07:07:24.133Z,98168.91
2022-12-05T07:09:45.982Z,98171.50
2022-12-05T07:11:49.385Z,98173.16
2022-12-05T07:13:52.411Z,98171.41
2022-12-05T07:15:55.338Z,98172.25
2022-12-05T07:17:58.332Z,98177.34
2022-12-05T07:20:01.412Z,98173.84
2022-12-05T07:22:04.774Z,98189.38
2022-12-05T07:24:09.180Z,98210.84
2022-12-05T07:26:13.589Z,98214.28
2022-12-05T07:28:16.551Z,98210.78
2022-12-05T07:30:19.685Z,98214.13
2022-12-05T07:32:22.702Z,98212.38
2022-12-05T07:34:26.307Z,98222.66
2022-12-05T07:36:29.411Z,98217.50
2022-12-05T07:38:32.443Z,98232.84
2022-12-05T07:40:38.616Z,98226.84
2022-12-05T07:42:41.645Z,98233.72
2022-12-05T07:44:44.676Z,98242.31
2022-12-05T07:46:47.730Z,98243.13
2022-12-05T07:48:52.343Z,98244.88
2022-12-05T07:50:55.250Z,98246.56
2022-12-05T07:52:58.204Z,98244.06
2022-12-05T07:55:01.255Z,98237.13
2022-12-05T07:57:05.753Z,98241.47
2022-12-05T07:59:08.725Z,98249.16
2022-12-05T08:01:13.380Z,98236.97
2022-12-05T08:03:16.465Z,98233.56
2022-12-05T08:05:20.469Z,98233.63
2022-12-05T08:07:23.612Z,98227.00
2022-12-05T08:09:27.625Z,98221.44
2022-12-05T08:11:35.264Z,98226.91
2022-12-05T08:13:39.641Z,98228.88
2022-12-05T08:15:42.759Z,98222.03
2022-12-05T08:17:45.815Z,98219.59
2022-12-05T08:19:48.823Z,98225.38
2022-12-05T08:21:52.449Z,98227.13
2022-12-05T08:23:55.832Z,98237.25
2022-12-05T08:26:03.125Z,98245.63
2022-12-05T08:28:06.393Z,98244.59
2022-12-05T08:30:11.224Z,98245.97
2022-12-05T08:32:14.233Z,98244.06
2022-12-05T08:34:19.912Z,98238.59
2022-12-05T08:36:22.951Z,98234.09
2022-12-05T08:38:26.144Z,98239.03
2022-12-05T08:40:29.153Z,98247.34
2022-12-05T08:42:32.650Z,98249.69
2022-12-05T08:44:35.802Z,98257.16
2022-12-05T08:46:40.289Z,98255.34
2022-12-05T08:48:43.418Z,98258.78
2022-12-05T08:50:46.455Z,98256.25
2022-12-05T08:52:49.483Z,98264.03
2022-12-05T08:54:53.038Z,98264.09
2022-12-05T08:56:56.127Z,98268.31
2022-12-05T08:59:05.274Z,98262.25
2022-12-05T09:01:11.000Z,98265.63
2022-12-05T09:03:15.720Z,98264.63
2022-12-05T09:05:28.269Z,98268.91
2022-12-05T09:07:31.971Z,98275.81
2022-12-05T09:09:35.426Z,98279.03
2022-12-05T09:11:40.845Z,98283.91
2022-12-05T09:13:44.329Z,98288.94
2022-12-05T09:15:47.535Z,98297.31
2022-12-05T09:17:50.564Z,98293.81
2022-12-05T09:19:55.021Z,98295.63
2022-12-05T09:21:58.308Z,98301.69
2022-12-05T09:24:01.924Z,98301.59
2022-12-05T09:26:05.317Z,98302.28
2022-12-05T09:28:08.269Z,98310.72
2022-12-05T09:30:12.082Z,98306.31
2022-12-05T09:32:15.051Z,98304.47
2022-12-05T09:34:20.112Z,98312.84
2022-12-05T09:36:26.627Z,98312.63
2022-12-05T09:38:29.969Z,98312.63
2022-12-05T09:40:33.206Z,98315.97
2022-12-05T09:42:41.495Z,98311.72
2022-12-05T09:45:00.438Z,98317.72
2022-12-05T09:47:08.437Z,98313.28
2022-12-05T09:49:12.596Z,98315.72
2022-12-05T09:51:15.722Z,98319.09
2022-12-05T09:53:27.297Z,98318.00
2022-12-05T09:55:36.864Z,98317.09
2022-12-05T09:57:44.417Z,98323.91
2022-12-05T09:59:47.586Z,98325.47
2022-12-05T10:01:56.856Z,98321.91
2022-12-05T10:04:18.046Z,98326.09
2022-12-05T10:06:25.190Z,98320.91
2022-12-05T10:08:33.163Z,98315.56
2022-12-05T10:10:46.402Z,98316.41
2022-12-05T10:13:00.645Z,98313.88
2022-12-05T10:15:09.782Z,98317.38
2022-12-05T10:17:18.072Z,98323.44
2022-12-05T10:19:26.663Z,98322.56
2022-12-05T10:21:32.645Z,98324.25
2022-12-05T10:23:57.165Z,98328.38
2022-12-05T10:26:04.599Z,98320.53
2022-12-05T10:28:13.812Z,98312.81
2022-12-05T10:30:19.119Z,98314.47
2022-12-05T10:32:26.961Z,98308.38
2022-12-05T10:34:33.324Z,98307.41
2022-12-05T10:36:36.380Z,98306.38
2022-12-05T10:38:42.070Z,98311.47
2022-12-05T10:40:47.589Z,98313.09
2022-12-05T10:42:51.550Z,98313.91
2022-12-05T10:44:58.760Z,98318.34
2022-12-05T10:47:02.814Z,98311.56
2022-12-05T10:49:11.124Z,98315.94
2022-12-05T10:51:15.963Z,98307.22
2022-12-05T10:53:22.578Z,98307.97
2022-12-05T10:55:31.108Z,98304.38
2022-12-05T10:57:34.188Z,98300.19
2022-12-05T10:59:47.109Z,98301.09
2022-12-05T11:01:52.860Z,98301.03
2022-12-05T11:03:58.434Z,98304.38
2022-12-05T11:06:03.154Z,98305.91
2022-12-05T11:08:06.922Z,98305.81
2022-12-05T11:10:26.666Z,98314.25
2022-12-05T11:12:38.074Z,98311.75
2022-12-05T11:14:41.337Z,98306.72
2022-12-05T11:16:53.659Z,98299.19
2022-12-05T11:18:56.725Z,98299.34
2022-12-05T11:21:11.036Z,98295.00
2022-12-05T11:23:24.427Z,98298.13
2022-12-05T11:25:33.779Z,98304.75
2022-12-05T11:27:38.180Z,98312.28
2022-12-05T11:29:41.278Z,98305.09
2022-12-05T11:31:52.290Z,98306.59
2022-12-05T11:34:16.068Z,98306.00
2022-12-05T11:36:21.089Z,98302.00
2022-12-05T11:38:28.277Z,98302.16
2022-12-05T11:40:38.629Z,98298.69
2022-12-05T11:42:57.650Z,98291.84
2022-12-05T11:45:11.550Z,98300.38
2022-12-05T11:47:21.051Z,98300.38
2022-12-05T11:49:41.299Z,98300.38
2022-12-05T11:51:50.441Z,98296.09
2022-12-05T11:54:13.430Z,98299.78
2022-12-05T11:56:25.573Z,98306.63
2022-12-05T11:58:49.346Z,98309.22
2022-12-05T12:01:03.264Z,98304.03
2022-12-05T12:03:32.575Z,98306.41
2022-12-05T12:05:40.165Z,98302.91
2022-12-05T12:07:58.357Z,98299.56
2022-12-05T12:10:10.440Z,98293.34
2022-12-05T12:12:19.900Z,98288.69
2022-12-05T12:14:30.895Z,98290.19
2022-12-05T12:16:37.914Z,98284.81
2022-12-05T12:18:56.099Z,98283.00
2022-12-05T12:21:06.786Z,98280.50
2022-12-05T12:23:21.594Z,98274.09
2022-12-05T12:25:37.382Z,98275.78
2022-12-05T12:27:47.988Z,98285.00
2022-12-05T12:29:59.926Z,98285.53
2022-12-05T12:32:13.595Z,98287.88
2022-12-05T12:34:37.324Z,98285.94
2022-12-05T12:36:47.333Z,98290.00
2022-12-05T12:39:08.759Z,98290.88
2022-12-05T12:41:19.168Z,98297.72
2022-12-05T12:43:53.069Z,98290.72
2022-12-05T12:46:13.235Z,98281.06
2022-12-05T12:48:29.343Z,98292.97
2022-12-05T12:50:36.516Z,98292.88
2022-12-05T12:52:55.001Z,98293.72
2022-12-05T12:55:12.357Z,98295.41
2022-12-05T12:57:23.958Z,98294.53
2022-12-05T12:59:51.377Z,98291.94
2022-12-05T13:01:59.496Z,98281.47
2022-12-05T13:04:09.468Z,98290.13
2022-12-05T13:06:16.290Z,98282.41
2022-12-05T13:08:24.760Z,98279.91
2022-12-05T13:10:33.015Z,98275.38
2022-12-05T13:12:39.250Z,98273.59
2022-12-05T13:14:47.282Z,98282.16
2022-12-05T13:16:53.105Z,98277.16
2022-12-05T13:18:57.967Z,98274.63
2022-12-05T13:21:04.655Z,98265.97
2022-12-05T13:23:09.197Z,98273.59
2022-12-05T13:25:15.822Z,98269.19
2022-12-05T13:27:20.181Z,98268.66
2022-12-05T13:29:28.190Z,98275.88
2022-12-05T13:31:39.119Z,98272.19
2022-12-05T13:33:45.232Z,98276.19
2022-12-05T13:36:06.897Z,98279.56
2022-12-05T13:38:40.108Z,98272.53
2022-12-05T13:41:09.117Z,98276.88
2022-12-05T13:43:13.020Z,98279.41
2022-12-05T13:45:18.580Z,98281.84
2022-12-05T13:47:29.414Z,98283.47
2022-12-05T13:49:37.674Z,98286.09
2022-12-05T13:51:44.308Z,98287.69
2022-12-05T13:53:49.548Z,98284.94
2022-12-05T13:55:58.363Z,98290.06
2022-12-05T13:58:02.068Z,98290.81
2022-12-05T14:00:07.497Z,98295.09
2022-12-05T14:02:51.233Z,98297.69
2022-12-05T14:04:54.332Z,98293.31
2022-12-05T14:06:59.433Z,98296.75
2022-12-05T14:09:03.181Z,98298.50
2022-12-05T14:11:11.474Z,98305.47
2022-12-05T14:13:42.509Z,98300.09
2022-12-05T14:15:46.534Z,98312.16
2022-12-05T14:17:50.212Z,98305.31
2022-12-05T14:20:06.134Z,98303.63
2022-12-05T14:22:28.151Z,98313.09
2022-12-05T14:24:34.500Z,98312.25
2022-12-05T14:26:47.934Z,98303.69
2022-12-05T14:29:01.950Z,98316.69
2022-12-05T14:31:18.449Z,98311.84
2022-12-05T14:33:23.640Z,98313.81
2022-12-05T14:35:30.244Z,98313.16
2022-12-05T14:37:37.748Z,98320.00
2022-12-05T14:39:43.716Z,98313.16
2022-12-05T14:41:47.588Z,98315.84
2022-12-05T14:43:53.880Z,98310.56
2022-12-05T14:46:03.536Z,98309.78
2022-12-05T14:48:08.042Z,98314.06
2022-12-05T14:50:35.492Z,98307.09
2022-12-05T14:52:41.117Z,98317.59
2022-12-05T14:54:44.827Z,98309.13
2022-12-05T14:56:50.955Z,98314.31
2022-12-05T14:58:57.427Z,98313.56
2022-12-05T15:01:02.271Z,98311.06
2022-12-05T15:03:06.238Z,98309.38
2022-12-05T15:05:21.740Z,98311.97
2022-12-05T15:07:34.250Z,98311.16
2022-12-05T15:09:55.120Z,98312.81
2022-12-05T15:11:58.728Z,98313.75
2022-12-05T15:14:06.739Z,98318.06
2022-12-05T15:16:16.709Z,98317.16
2022-12-05T15:18:23.180Z,98311.16
2022-12-05T15:20:34.371Z,98321.63
2022-12-05T15:22:41.642Z,98322.53
2022-12-05T15:24:46.604Z,98321.69
2022-12-05T15:26:51.886Z,98317.41
2022-12-05T15:29:03.643Z,98316.75
2022-12-05T15:31:08.111Z,98312.47
2022-12-05T15:33:12.947Z,98314.16
2022-12-05T15:35:16.922Z,98321.16
2022-12-05T15:37:22.354Z,98317.66
2022-12-05T15:39:28.687Z,98329.72
2022-12-05T15:41:33.196Z,98329.03
2022-12-05T15:43:37.418Z,98324.72
2022-12-05T15:45:40.655Z,98328.22
2022-12-05T15:47:45.978Z,98329.97
2022-12-05T15:49:49.043Z,98338.59
2022-12-05T15:51:54.983Z,98333.41
2022-12-05T15:54:01.844Z,98333.56
2022-12-05T15:56:07.104Z,98338.00
2022-12-05T15:58:16.891Z,98351.00
2022-12-05T16:00:22.211Z,98341.53
2022-12-05T16:02:30.310Z,98348.56
2022-12-05T16:04:36.805Z,98346.88
2022-12-05T16:06:42.308Z,98342.63
2022-12-05T16:08:46.477Z,98353.00
2022-12-05T16:10:49.683Z,98337.44
2022-12-05T16:12:53.560Z,98345.22
2022-12-05T16:15:01.726Z,98340.94
2022-12-05T16:17:06.599Z,98340.09
2022-12-05T16:19:15.751Z,98345.38
2022-12-05T16:21:38.849Z,98347.13
2022-12-05T16:23:44.043Z,98348.06
2022-12-05T16:25:47.167Z,98346.53
2022-12-05T16:27:58.342Z,98357.00
2022-12-05T16:30:10.996Z,98357.00
2022-12-05T16:32:19.908Z,98355.31
2022-12-05T16:34:23.042Z,98363.09
2022-12-05T16:36:26.139Z,98366.53
2022-12-05T16:38:30.001Z,98361.44
2022-12-05T16:40:33.146Z,98359.66
2022-12-05T16:42:37.394Z,98366.63
2022-12-05T16:45:04.661Z,98358.91
2022-12-05T16:47:19.139Z,98363.41
2022-12-05T16:49:42.808Z,98366.09
2022-12-05T16:51:56.321Z,98368.00
2022-12-05T16:53:59.868Z,98368.16
2022-12-05T16:56:05.347Z,98369.94
2022-12-05T16:58:13.282Z,98368.16
2022-12-05T17:00:17.040Z,98365.66
2022-12-05T17:02:21.619Z,98367.41
2022-12-05T17:04:24.837Z,98368.31
2022-12-05T17:06:28.106Z,98356.25
2022-12-05T17:08:31.360Z,98362.31
2022-12-05T17:10:35.150Z,98366.72
2022-12-05T17:12:39.458Z,98366.72
2022-12-05T17:14:44.347Z,98362.47
2022-12-05T17:16:48.124Z,98362.38
2022-12-05T17:18:53.037Z,98365.88
2022-12-05T17:20:57.344Z,98360.53
2022-12-05T17:23:01.033Z,98368.25
2022-12-05T17:25:04.364Z,98366.47
2022-12-05T17:27:07.626Z,98356.97
2022-12-05T17:29:11.576Z,98364.66
2022-12-05T17:31:17.124Z,98361.13
2022-12-05T17:33:23.560Z,98365.50
2022-12-05T17:35:30.672Z,98362.97
2022-12-05T17:37:33.811Z,98366.31
2022-12-05T17:39:36.960Z,98366.31
2022-12-05T17:41:40.215Z,98372.28
2022-12-05T17:43:43.686Z,98367.09
2022-12-05T17:45:47.793Z,98365.34
2022-12-05T17:47:51.238Z,98364.50
2022-12-05T17:49:54.383Z,98365.56
2022-12-05T17:52:21.049Z,98362.16
2022-12-05T17:54:23.481Z,98369.06
2022-12-05T17:56:27.378Z,98368.31
2022-12-05T17:58:30.510Z,98370.91
2022-12-05T18:00:33.822Z,98370.25
2022-12-05T18:02:37.092Z,98370.31
2022-12-05T18:04:40.099Z,98368.72
2022-12-05T18:06:43.233Z,98367.13
2022-12-05T18:08:47.739Z,98360.25
2022-12-05T18:10:51.808Z,98372.41
2022-12-05T18:12:55.412Z,98364.78
2022-12-05T18:14:58.990Z,98367.44
2022-12-05T18:17:02.547Z,98372.78
2022-12-05T18:19:08.455Z,98365.75
2022-12-05T18:21:13.380Z,98359.75
2022-12-05T18:23:16.493Z,98363.16
2022-12-05T18:25:21.396Z,98357.22
2022-12-05T18:27:25.299Z,98359.75
2022-12-05T18:29:28.472Z,98358.88
2022-12-05T18:31:31.658Z,98366.75
2022-12-05T18:33:36.423Z,98363.41
2022-12-05T18:35:41.796Z,98362.56
2022-12-05T18:37:44.808Z,98360.97
2022-12-05T18:39:47.903Z,98362.88
2022-12-05T18:41:52.377Z,98371.63
2022-12-05T18:43:55.801Z,98373.41
2022-12-05T18:46:00.000Z,98373.41
2022-12-05T18:48:37.772Z,98370.81
2022-12-05T18:50:26.625Z,98373.41
2022-12-05T18:52:29.763Z,98379.50
2022-12-05T18:54:32.911Z,98373.56
2022-12-05T18:56:38.243Z,98383.00
2022-12-05T18:58:42.668Z,98378.75
2022-12-05T19:00:45.782Z,98383.00
2022-12-05T19:02:49.710Z,98382.91
2022-12-05T19:04:52.860Z,98392.53
2022-12-05T19:06:57.707Z,98388.25
2022-12-05T19:09:02.371Z,98388.25
2022-12-05T19:11:05.695Z,98386.59
2022-12-05T19:13:09.429Z,98389.34
2022-12-05T19:15:13.914Z,98384.22
2022-12-05T19:17:17.289Z,98387.72
2022-12-05T19:19:21.182Z,98382.69
2022-12-05T19:21:24.909Z,98398.25
2022-12-05T19:23:28.597Z,98388.63
2022-12-05T19:25:32.692Z,98395.59
2022-12-05T19:27:36.286Z,98397.34
2022-12-05T19:29:40.170Z,98399.09
2022-12-05T19:31:45.707Z,98395.59
2022-12-05T19:33:50.717Z,98396.50
2022-12-05T19:35:53.791Z,98394.75
2022-12-05T19:37:57.471Z,98393.81
2022-12-05T19:40:00.691Z,98388.72
2022-12-05T19:42:04.023Z,98396.75
2022-12-05T19:44:07.313Z,98393.28
2022-12-05T19:46:12.756Z,98399.50
2022-12-05T19:48:22.654Z,98388.34
2022-12-05T19:50:25.966Z,98394.53
2022-12-05T19:52:31.448Z,98403.22
2022-12-05T19:54:34.587Z,98397.19
2022-12-05T19:56:38.130Z,98393.06
2022-12-05T19:58:42.134Z,98392.25
2022-12-05T20:00:45.564Z,98391.44
2022-12-05T20:02:50.479Z,98388.94
2022-12-05T20:04:55.075Z,98394.03
2022-12-05T20:06:58.499Z,98400.84
2022-12-05T20:09:01.995Z,98396.50
2022-12-05T20:11:06.384Z,98397.50
2022-12-05T20:13:38.542Z,98397.66
2022-12-05T20:15:34.061Z,98397.66
2022-12-05T20:17:37.146Z,98397.66
2022-12-05T20:19:40.303Z,98396.72
2022-12-05T20:21:44.972Z,98404.47
2022-12-05T20:23:48.025Z,98398.47
2022-12-05T20:25:51.141Z,98397.56
2022-12-05T20:27:54.219Z,98391.53
2022-12-05T20:29:57.534Z,98390.91
2022-12-05T20:32:00.871Z,98384.03
2022-12-05T20:34:04.598Z,98391.81
2022-12-05T20:36:09.994Z,98398.00
2022-12-05T20:38:14.830Z,98394.72
2022-12-05T20:40:18.126Z,98400.81
2022-12-05T20:42:21.238Z,98399.00
2022-12-05T20:44:24.415Z,98389.44
2022-12-05T20:46:28.372Z,98399.66
2022-12-05T20:48:31.533Z,98394.41
2022-12-05T20:50:35.622Z,98400.47
2022-12-05T20:52:43.583Z,98404.78
2022-12-05T20:54:52.179Z,98400.53
2022-12-05T20:56:55.426Z,98403.28
2022-12-05T20:59:00.172Z,98398.09
2022-12-05T21:01:05.774Z,98397.22
2022-12-05T21:03:12.846Z,98390.31
2022-12-05T21:05:18.835Z,98392.91
2022-12-05T21:07:21.890Z,98391.91
2022-12-05T21:09:28.587Z,98393.72
2022-12-05T21:11:33.311Z,98398.00
2022-12-05T21:13:36.725Z,98386.78
2022-12-05T21:15:39.952Z,98385.06
2022-12-05T21:17:43.012Z,98393.72
2022-12-05T21:19:46.454Z,98387.88
2022-12-05T21:21:49.673Z,98397.38
2022-12-05T21:23:54.730Z,98398.22
2022-12-05T21:26:02.323Z,98390.38
2022-12-05T21:28:06.807Z,98389.53
2022-12-05T21:30:11.032Z,98399.06
2022-12-05T21:32:14.024Z,98390.47
2022-12-05T21:34:20.195Z,98386.94
2022-12-05T21:36:24.103Z,98396.41
2022-12-05T21:38:27.150Z,98394.72
2022-12-05T21:40:30.179Z,98391.38
2022-12-05T21:42:33.611Z,98388.78
2022-12-05T21:44:38.537Z,98387.09
2022-12-05T21:46:41.665Z,98390.38
2022-12-05T21:48:45.263Z,98387.78
2022-12-05T21:50:48.383Z,98386.03
2022-12-05T21:52:51.926Z,98391.13
2022-12-05T21:54:56.677Z,98383.44
2022-12-05T21:56:59.752Z,98386.94
2022-12-05T21:59:03.237Z,98390.47
2022-12-05T22:01:08.522Z,98382.69
2022-12-05T22:03:14.863Z,98383.66
2022-12-05T22:05:18.836Z,98382.84
2022-12-05T22:07:22.126Z,98388.84
2022-12-05T22:09:25.187Z,98385.44
2022-12-05T22:11:28.439Z,98385.44
2022-12-05T22:13:31.933Z,98376.72
2022-12-05T22:15:35.077Z,98375.00
2022-12-05T22:17:39.749Z,98380.91
2022-12-05T22:19:43.289Z,98380.03
2022-12-05T22:21:46.324Z,98379.16
2022-12-05T22:23:50.825Z,98378.47
2022-12-05T22:25:58.645Z,98376.09
2022-12-05T22:28:01.724Z,98382.16
2022-12-05T22:30:06.278Z,98391.72
2022-12-05T22:32:10.500Z,98390.97
2022-12-05T22:34:15.108Z,98383.13
2022-12-05T22:36:19.408Z,98382.44
2022-12-05T22:38:22.372Z,98381.88
2022-12-05T22:40:25.580Z,98380.38
2022-12-05T22:42:28.601Z,98377.91
2022-12-05T22:44:31.721Z,98378.81
2022-12-05T22:46:34.883Z,98377.06
2022-12-05T22:48:37.997Z,98373.63
2022-12-05T22:50:47.108Z,98374.47
2022-12-05T22:52:50.160Z,98376.97
2022-12-05T22:54:53.219Z,98370.06
2022-12-05T22:56:56.225Z,98372.81
2022-12-05T22:59:00.807Z,98370.16
2022-12-05T23:01:11.145Z,98371.03
2022-12-05T23:03:15.251Z,98373.78
2022-12-05T23:05:18.610Z,98372.09
2022-12-05T23:07:23.264Z,98366.09
2022-12-05T23:09:27.013Z,98364.31
2022-12-05T23:11:30.819Z,98371.19
2022-12-05T23:13:35.495Z,98371.19
2022-12-05T23:15:38.931Z,98368.59
2022-12-05T23:17:42.930Z,98366.91
2022-12-05T23:19:46.176Z,98368.59
2022-12-05T23:21:49.185Z,98365.19
2022-12-05T23:23:54.809Z,98369.50
2022-12-05T23:25:58.060Z,98372.09
2022-12-05T23:28:01.126Z,98368.75
2022-12-05T23:30:04.356Z,98363.56
2022-12-05T23:32:09.549Z,98362.75
2022-12-05T23:34:13.132Z,98365.41
2022-12-05T23:36:16.404Z,98357.63
2022-12-05T23:38:19.367Z,98356.84
2022-12-05T23:40:23.784Z,98365.53
2022-12-05T23:42:27.105Z,98356.00
2022-12-05T23:44:30.142Z,98364.75
2022-12-05T23:46:33.285Z,98351.13
2022-12-05T23:48:36.777Z,98350.28
2022-12-05T23:50:39.844Z,98350.50
2022-12-05T23:52:42.829Z,98347.91
2022-12-05T23:54:46.076Z,98345.41
2022-12-05T23:56:50.441Z,98349.91
2022-12-05T23:58:54.676Z,98344.72
